Time;durP1;ratioP1;P1;durP2;ratioP2;P2;SDS_P1;SDS_P2;PMS_P1;PMS_P2;Temp;Humidity;BMP_temperature;BMP_pressure;BME280_temperature;BME280_humidity;BME280_pressure;Samples;Min_cycle;Max_cycle;Signal;HPM_P1;HPM_P2
2021/09/11 00:00:22;;;;;;;17.10;12.73;;;;;;;19.16;100.00;100719.22;5071863;28;20248;-73
2021/09/11 00:02:48;;;;;;;15.40;12.93;;;;;;;19.10;100.00;100709.53;5054637;28;20186;-73
2021/09/11 00:05:14;;;;;;;15.60;12.55;;;;;;;19.13;100.00;100725.38;5037281;28;20193;-74
2021/09/11 00:07:39;;;;;;;18.63;15.23;;;;;;;19.13;100.00;100714.38;5072466;28;20167;-73
2021/09/11 00:10:06;;;;;;;19.60;14.95;;;;;;;19.27;100.00;100711.41;5053332;28;20203;-73
2021/09/11 00:12:32;;;;;;;22.55;15.90;;;;;;;19.30;100.00;100708.81;5072052;28;20218;-74
2021/09/11 00:15:02;;;;;;;18.15;15.25;;;;;;;19.25;100.00;100703.50;5072159;28;20187;-74
2021/09/11 00:17:28;;;;;;;19.63;16.48;;;;;;;19.25;100.00;100706.25;5070286;28;20703;-73
2021/09/11 00:19:54;;;;;;;21.52;15.50;;;;;;;19.21;100.00;100709.97;5070409;28;20183;-74
2021/09/11 00:22:21;;;;;;;19.10;16.42;;;;;;;19.18;100.00;100714.19;5053816;28;20235;-73
2021/09/11 00:24:47;;;;;;;22.40;16.70;;;;;;;19.21;100.00;100719.06;5054195;28;20186;-73
2021/09/11 00:27:15;;;;;;;22.30;16.67;;;;;;;19.26;100.00;100713.38;5053500;28;20291;-73
2021/09/11 00:29:40;;;;;;;25.15;17.52;;;;;;;19.29;100.00;100712.72;5053138;28;20191;-73
2021/09/11 00:32:06;;;;;;;25.63;17.98;;;;;;;19.31;100.00;100711.25;5071418;28;20232;-72
2021/09/11 00:34:33;;;;;;;18.85;16.77;;;;;;;19.28;100.00;100706.41;5052956;28;20641;-73
2021/09/11 00:37:04;;;;;;;24.85;18.13;;;;;;;19.32;100.00;100706.53;5069945;28;20234;-73
2021/09/11 00:39:31;;;;;;;23.00;17.40;;;;;;;19.28;100.00;100705.59;5023073;28;20216;-72
2021/09/11 00:42:00;;;;;;;30.15;20.50;;;;;;;19.22;100.00;100719.88;5017100;28;20696;-72
2021/09/11 00:44:30;;;;;;;26.20;20.05;;;;;;;19.21;100.00;100716.31;5070285;28;20203;-72
2021/09/11 00:46:58;;;;;;;28.92;21.13;;;;;;;19.23;100.00;100716.78;5036559;28;20261;-72
2021/09/11 00:49:23;;;;;;;29.25;21.85;;;;;;;19.26;100.00;100716.13;5069785;28;20190;-74
2021/09/11 00:51:51;;;;;;;29.38;22.23;;;;;;;19.25;100.00;100710.94;5052782;28;20223;-73
2021/09/11 00:54:16;;;;;;;30.15;22.08;;;;;;;19.21;100.00;100715.47;5037026;28;20179;-73
2021/09/11 00:56:44;;;;;;;33.47;23.98;;;;;;;19.24;100.00;100710.13;5037136;28;20230;-74
2021/09/11 00:59:09;;;;;;;33.67;24.42;;;;;;;19.23;100.00;100714.03;5036265;28;20267;-73
2021/09/11 01:01:35;;;;;;;31.08;23.88;;;;;;;19.25;100.00;100724.72;5069478;28;20272;-74
2021/09/11 01:04:03;;;;;;;37.03;24.70;;;;;;;19.14;100.00;100726.19;5053553;28;20179;-74
2021/09/11 01:06:29;;;;;;;36.63;24.33;;;;;;;19.17;100.00;100726.34;5069482;28;20727;-73
2021/09/11 01:08:55;;;;;;;34.83;25.27;;;;;;;19.24;100.00;100729.41;5036296;28;20174;-74
2021/09/11 01:11:20;;;;;;;35.67;24.88;;;;;;;19.26;100.00;100738.16;5038756;28;20325;-73
2021/09/11 01:13:48;;;;;;;30.45;23.63;;;;;;;19.03;100.00;100731.25;5053588;28;20182;-73
2021/09/11 01:16:14;;;;;;;36.85;26.00;;;;;;;18.99;100.00;100734.94;5069381;28;20226;-74
2021/09/11 01:18:39;;;;;;;39.50;27.13;;;;;;;18.93;100.00;100720.50;5052748;28;20267;-74
2021/09/11 01:21:05;;;;;;;36.28;25.80;;;;;;;19.01;100.00;100728.00;5068739;28;20276;-73
2021/09/11 01:23:31;;;;;;;41.47;26.85;;;;;;;18.93;100.00;100731.53;5052910;28;20198;-72
2021/09/11 01:25:59;;;;;;;47.47;27.00;;;;;;;19.00;100.00;100731.06;5052529;28;20685;-72
2021/09/11 01:28:29;;;;;;;43.20;26.63;;;;;;;19.15;100.00;100734.13;5052874;28;20187;-73
2021/09/11 01:30:58;;;;;;;40.92;25.90;;;;;;;19.12;100.00;100740.31;5052386;28;20223;-72
2021/09/11 01:33:28;;;;;;;42.83;27.63;;;;;;;19.27;100.00;100733.44;5053446;28;20655;-73
2021/09/11 01:36:01;;;;;;;41.38;25.77;;;;;;;19.24;100.00;100725.84;5069929;28;20247;-74
2021/09/11 01:38:27;;;;;;;40.70;25.92;;;;;;;19.28;100.00;100727.63;5070822;28;20203;-74
2021/09/11 01:40:55;;;;;;;44.03;27.33;;;;;;;19.39;100.00;100729.69;5070401;28;20229;-72
2021/09/11 01:43:29;;;;;;;47.20;28.17;;;;;;;19.29;100.00;100723.75;5054690;28;20183;-72
2021/09/11 01:45:57;;;;;;;46.63;27.60;;;;;;;19.24;100.00;100726.66;5055577;28;20218;-72
2021/09/11 01:48:28;;;;;;;44.78;27.13;;;;;;;19.09;100.00;100727.19;5057867;28;20666;-72
2021/09/11 01:50:58;;;;;;;46.33;27.58;;;;;;;19.16;100.00;100735.75;5057933;28;20306;-73
2021/09/11 01:53:30;;;;;;;48.08;27.45;;;;;;;19.12;100.00;100729.28;5058485;28;20190;-72
2021/09/11 01:55:56;;;;;;;47.30;26.92;;;;;;;19.15;100.00;100728.63;5027388;28;20219;-72
2021/09/11 01:58:24;;;;;;;44.13;27.67;;;;;;;19.27;100.00;100737.03;5019922;28;20196;-72
2021/09/11 02:00:52;;;;;;;47.60;27.80;;;;;;;19.36;100.00;100730.38;5024834;28;20272;-73
2021/09/11 02:03:20;;;;;;;53.53;29.08;;;;;;;19.24;100.00;100737.69;5037696;28;20634;-72
2021/09/11 02:05:46;;;;;;;43.58;27.77;;;;;;;19.29;100.00;100741.06;5036580;28;20283;-74
2021/09/11 02:08:12;;;;;;;47.53;28.70;;;;;;;19.01;100.00;100739.03;5036899;28;20537;-72
2021/09/11 02:10:37;;;;;;;53.83;29.60;;;;;;;19.09;100.00;100740.94;5059037;28;20234;-72
2021/09/11 02:13:05;;;;;;;50.17;29.83;;;;;;;19.02;100.00;100734.31;5056328;28;20187;-72
2021/09/11 02:15:32;;;;;;;55.75;30.58;;;;;;;19.08;100.00;100733.84;5019864;28;20219;-72
2021/09/11 02:17:59;;;;;;;52.38;30.13;;;;;;;19.25;100.00;100735.72;5052953;28;20202;-72
2021/09/11 02:20:27;;;;;;;53.15;30.55;;;;;;;19.16;100.00;100735.75;5023170;28;20611;-71
2021/09/11 02:22:57;;;;;;;58.10;30.98;;;;;;;19.23;100.00;100738.00;5040302;28;20183;-72
2021/09/11 02:25:22;;;;;;;55.25;30.13;;;;;;;19.26;100.00;100740.91;5039529;28;20190;-71
2021/09/11 02:27:50;;;;;;;64.32;32.25;;;;;;;19.19;100.00;100740.59;5056062;28;20179;-72
2021/09/11 02:30:18;;;;;;;58.10;30.60;;;;;;;19.27;100.00;100739.78;5073274;28;20195;-72
2021/09/11 02:32:44;;;;;;;63.55;31.83;;;;;;;19.28;100.00;100738.63;5052244;28;20255;-71
2021/09/11 02:35:14;;;;;;;65.20;33.13;;;;;;;19.34;100.00;100740.09;5052405;28;20198;-71
2021/09/11 02:37:39;;;;;;;66.30;33.38;;;;;;;19.20;100.00;100744.97;5035507;28;20184;-72
2021/09/11 02:40:10;;;;;;;66.82;33.38;;;;;;;19.23;100.00;100747.09;5051788;28;20263;-73
2021/09/11 02:42:43;;;;;;;64.50;33.55;;;;;;;19.21;100.00;100751.28;5070265;28;20191;-72
2021/09/11 02:45:11;;;;;;;71.03;34.33;;;;;;;19.11;100.00;100744.19;5038971;28;20190;-72
2021/09/11 02:47:36;;;;;;;66.35;35.67;;;;;;;19.13;100.00;100741.91;5055984;28;20187;-73
2021/09/11 02:50:04;;;;;;;70.68;35.45;;;;;;;19.10;100.00;100737.06;5071430;28;20183;-72
2021/09/11 02:52:35;;;;;;;71.18;35.58;;;;;;;19.04;100.00;100732.84;5072182;28;20179;-72
2021/09/11 02:55:00;;;;;;;68.05;35.47;;;;;;;19.01;100.00;100736.25;5039067;28;20183;-71
2021/09/11 02:57:26;;;;;;;63.28;33.00;;;;;;;19.05;100.00;100731.72;5070748;28;20218;-72
2021/09/11 02:59:54;;;;;;;68.80;34.33;;;;;;;19.05;100.00;100737.22;5055018;28;20219;-73
2021/09/11 03:02:19;;;;;;;67.15;35.08;;;;;;;19.20;100.00;100739.47;5040955;28;20847;-71
2021/09/11 03:04:44;;;;;;;65.03;33.60;;;;;;;19.18;100.00;100739.00;5075489;28;20170;-71
2021/09/11 03:07:13;;;;;;;60.78;32.72;;;;;;;19.15;100.00;100745.16;5064367;28;20576;-73
2021/09/11 03:09:40;;;;;;;66.88;33.75;;;;;;;19.10;100.00;100737.06;5054936;28;20191;-72
2021/09/11 03:12:08;;;;;;;61.00;33.10;;;;;;;19.04;100.00;100732.84;5054943;28;20226;-72
2021/09/11 03:14:34;;;;;;;69.82;34.15;;;;;;;19.07;100.00;100734.97;5038592;28;20186;-73
2021/09/11 03:16:59;;;;;;;60.08;33.45;;;;;;;19.13;100.00;100736.41;5038199;28;20222;-72
2021/09/11 03:19:25;;;;;;;61.33;32.92;;;;;;;19.19;100.00;100732.34;5054691;28;20217;-72
2021/09/11 03:21:54;;;;;;;67.63;33.35;;;;;;;18.99;100.00;100723.94;5071293;28;20599;-72
2021/09/11 03:24:22;;;;;;;65.63;34.15;;;;;;;19.13;100.00;100730.88;5071957;28;20167;-72
2021/09/11 03:26:50;;;;;;;61.75;33.30;;;;;;;19.30;100.00;100730.84;5071038;28;20703;-73
2021/09/11 03:29:18;;;;;;;67.13;34.30;;;;;;;19.19;100.00;100729.56;5071202;28;20207;-73
2021/09/11 03:31:46;;;;;;;70.18;34.85;;;;;;;19.23;100.00;100736.06;5054471;28;20302;-72
2021/09/11 03:34:16;;;;;;;70.97;34.65;;;;;;;19.27;100.00;100734.28;5038951;28;20217;-73
2021/09/11 03:36:42;;;;;;;67.15;33.88;;;;;;;19.09;100.00;100729.13;5071123;28;20222;-73
2021/09/11 03:39:12;;;;;;;69.80;34.78;;;;;;;19.10;100.00;100730.72;5037637;28;20221;-72
2021/09/11 03:41:38;;;;;;;69.90;35.60;;;;;;;19.05;100.00;100734.47;5072267;28;20254;-73
2021/09/11 03:44:06;;;;;;;66.30;36.00;;;;;;;18.91;100.00;100727.50;5038016;28;20557;-73
2021/09/11 03:46:34;;;;;;;74.47;35.83;;;;;;;18.95;100.00;100737.53;5053968;28;20222;-72
2021/09/11 03:49:02;;;;;;;74.72;35.28;;;;;;;18.92;100.00;100735.44;5051203;28;20224;-72
2021/09/11 03:51:34;;;;;;;64.25;34.30;;;;;;;19.12;100.00;100734.78;5035560;28;20303;-72
2021/09/11 03:54:04;;;;;;;70.53;35.00;;;;;;;19.02;100.00;100735.13;5038964;28;20191;-72
2021/09/11 03:56:32;;;;;;;69.75;35.47;;;;;;;19.00;100.00;100737.38;5038697;28;20246;-72
2021/09/11 03:58:59;;;;;;;68.93;34.33;;;;;;;18.96;100.00;100733.63;5053882;28;20688;-73
2021/09/11 04:01:25;;;;;;;71.55;35.22;;;;;;;18.98;100.00;100736.91;5037648;28;20241;-73
2021/09/11 04:03:50;;;;;;;77.43;36.25;;;;;;;18.99;100.00;100744.03;5053942;28;20581;-73
2021/09/11 04:06:16;;;;;;;79.75;36.60;;;;;;;19.07;100.00;100743.22;5070830;28;20219;-73
2021/09/11 04:08:44;;;;;;;75.53;35.10;;;;;;;19.20;100.00;100746.94;5057854;28;20583;-72
2021/09/11 04:11:12;;;;;;;70.78;36.88;;;;;;;19.21;100.00;100749.38;5036810;28;20211;-72
2021/09/11 04:13:37;;;;;;;80.72;37.25;;;;;;;19.19;100.00;100750.81;5071037;28;20387;-72
2021/09/11 04:16:03;;;;;;;79.43;36.88;;;;;;;19.18;100.00;100755.53;5070063;28;20221;-73
2021/09/11 04:18:28;;;;;;;76.55;36.53;;;;;;;19.23;100.00;100752.59;5036882;28;20274;-73
2021/09/11 04:20:56;;;;;;;90.45;38.90;;;;;;;19.26;100.00;100751.94;5053043;28;20222;-73
2021/09/11 04:23:22;;;;;;;80.93;37.63;;;;;;;19.31;100.00;100754.53;5054067;28;20190;-72
2021/09/11 04:25:50;;;;;;;80.00;36.38;;;;;;;19.26;100.00;100759.41;5052378;28;20211;-72
2021/09/11 04:28:16;;;;;;;73.70;35.22;;;;;;;19.33;100.00;100747.53;5069970;28;20601;-72
2021/09/11 04:30:41;;;;;;;60.53;33.20;;;;;;;19.54;100.00;100744.91;5070069;28;20226;-73
2021/09/11 04:33:09;;;;;;;78.95;35.60;;;;;;;19.50;100.00;100746.69;5068679;28;20187;-74
2021/09/11 04:35:35;;;;;;;77.13;36.38;;;;;;;19.35;100.00;100749.97;5064172;28;20762;-73
2021/09/11 04:38:01;;;;;;;73.30;35.03;;;;;;;19.32;100.00;100754.22;5052057;28;20230;-74
2021/09/11 04:40:29;;;;;;;69.78;35.30;;;;;;;19.46;100.00;100756.75;5051557;28;20260;-73
2021/09/11 04:42:55;;;;;;;74.43;34.53;;;;;;;19.40;100.00;100752.56;5054137;28;20182;-73
2021/09/11 04:45:26;;;;;;;73.85;35.35;;;;;;;19.36;100.00;100757.13;5053746;28;20187;-74
2021/09/11 04:47:56;;;;;;;74.53;35.42;;;;;;;19.45;100.00;100755.13;5070209;28;20171;-73
2021/09/11 04:50:22;;;;;;;71.88;34.85;;;;;;;19.48;100.00;100765.50;5053425;28;20695;-72
2021/09/11 04:52:55;;;;;;;75.28;34.50;;;;;;;19.41;100.00;100765.19;5071694;28;20182;-74
2021/09/11 04:55:21;;;;;;;70.05;33.67;;;;;;;19.34;100.00;100753.88;5070097;28;20556;-72
2021/09/11 04:57:47;;;;;;;74.70;34.65;;;;;;;19.28;100.00;100757.94;5069708;28;20244;-72
2021/09/11 05:00:14;;;;;;;78.72;33.13;;;;;;;19.24;100.00;100762.47;5053015;28;20203;-73
2021/09/11 05:02:42;;;;;;;77.13;34.28;;;;;;;19.26;100.00;100762.16;5021099;28;20552;-73
2021/09/11 05:05:12;;;;;;;73.63;33.55;;;;;;;19.31;100.00;100771.06;5070317;28;20183;-74
2021/09/11 05:07:40;;;;;;;72.97;33.63;;;;;;;19.34;100.00;100765.72;5071955;28;20186;-73
2021/09/11 05:10:06;;;;;;;63.53;31.83;;;;;;;19.43;100.00;100761.00;5038766;28;20187;-73
2021/09/11 05:12:32;;;;;;;58.47;30.58;;;;;;;19.27;100.00;100764.59;5036430;28;20649;-72
2021/09/11 05:14:57;;;;;;;46.90;26.90;;;;;;;19.14;100.00;100764.75;5069565;28;20201;-73
2021/09/11 05:17:25;;;;;;;50.80;27.63;;;;;;;19.13;100.00;100763.94;5069843;28;20233;-74
2021/09/11 05:19:50;;;;;;;54.67;28.50;;;;;;;19.15;100.00;100760.88;5052266;28;20268;-74
2021/09/11 05:22:16;;;;;;;46.47;27.13;;;;;;;19.30;100.00;100763.91;5036464;28;20331;-74
2021/09/11 05:24:42;;;;;;;46.30;27.10;;;;;;;19.30;100.00;100756.47;5053222;28;20267;-73
2021/09/11 05:27:12;;;;;;;48.60;26.75;;;;;;;19.11;100.00;100755.19;5069615;28;20226;-73
2021/09/11 05:29:38;;;;;;;47.63;26.45;;;;;;;19.12;100.00;100756.84;5036048;28;20175;-73
2021/09/11 05:32:04;;;;;;;48.85;27.58;;;;;;;19.12;100.00;100756.84;5070480;28;20223;-73
2021/09/11 05:34:32;;;;;;;50.60;28.38;;;;;;;19.32;100.00;100758.88;5070207;28;20660;-73
2021/09/11 05:36:58;;;;;;;45.05;26.60;;;;;;;19.19;100.00;100751.63;5036343;28;20608;-74
2021/09/11 05:39:25;;;;;;;52.80;27.92;;;;;;;19.21;100.00;100771.41;5071041;28;20203;-74
2021/09/11 05:41:54;;;;;;;53.22;29.85;;;;;;;19.15;100.00;100767.19;5053064;28;20250;-73
2021/09/11 05:44:19;;;;;;;56.47;28.98;;;;;;;19.36;100.00;100768.16;5070504;28;20183;-74
2021/09/11 05:46:47;;;;;;;53.40;29.10;;;;;;;19.43;100.00;100769.25;5052829;28;20279;-73
2021/09/11 05:49:15;;;;;;;51.53;26.85;;;;;;;19.54;100.00;100764.19;5053093;28;20179;-74
2021/09/11 05:51:45;;;;;;;50.70;28.40;;;;;;;19.70;100.00;100760.56;5052236;28;20325;-73
2021/09/11 05:54:15;;;;;;;50.03;28.20;;;;;;;19.37;100.00;100765.03;5054080;28;20183;-73
2021/09/11 05:56:41;;;;;;;48.42;28.33;;;;;;;19.31;100.00;100771.06;5052549;28;20218;-73
2021/09/11 05:59:11;;;;;;;46.83;29.25;;;;;;;19.45;100.00;100775.25;5053200;28;20205;-73
2021/09/11 06:01:40;;;;;;;47.53;27.17;;;;;;;19.43;100.00;100779.44;5070613;28;20222;-74
2021/09/11 06:04:06;;;;;;;44.85;28.30;;;;;;;19.56;100.00;100775.69;5053217;28;20274;-73
2021/09/11 06:06:32;;;;;;;48.28;28.38;;;;;;;19.53;100.00;100773.63;5068951;28;20231;-75
2021/09/11 06:09:00;;;;;;;47.72;28.17;;;;;;;19.41;100.00;100782.56;5069989;28;20186;-74
2021/09/11 06:11:25;;;;;;;45.20;27.02;;;;;;;19.60;100.00;100784.94;5052385;28;20234;-74
2021/09/11 06:14:00;;;;;;;43.75;27.63;;;;;;;19.57;100.00;100782.84;5036072;28;20191;-74
2021/09/11 06:16:25;;;;;;;40.88;26.30;;;;;;;19.60;100.00;100784.94;5050309;28;20218;-73
2021/09/11 06:18:53;;;;;;;44.95;27.15;;;;;;;19.76;100.00;100789.56;5050194;28;20249;-73
2021/09/11 06:21:19;;;;;;;46.00;27.30;;;;;;;19.65;100.00;100795.78;5066924;28;20223;-73
2021/09/11 06:23:44;;;;;;;44.88;27.42;;;;;;;19.53;100.00;100790.16;5019393;28;20245;-74
2021/09/11 06:26:12;;;;;;;40.80;26.52;;;;;;;19.56;100.00;100790.31;5069361;28;20280;-74
2021/09/11 06:28:43;;;;;;;40.38;26.40;;;;;;;19.55;100.00;100783.16;5036174;28;20258;-73
2021/09/11 06:31:08;;;;;;;49.55;27.90;;;;;;;19.42;100.00;100788.88;5069037;28;20222;-73
2021/09/11 06:33:34;;;;;;;44.60;26.13;;;;;;;19.61;100.00;100792.88;5056691;28;20265;-73
2021/09/11 06:36:02;;;;;;;44.55;27.17;;;;;;;19.53;100.00;100790.16;5038941;28;20659;-74
2021/09/11 06:38:28;;;;;;;45.13;27.08;;;;;;;19.50;100.00;100790.78;5065814;28;20233;-73
2021/09/11 06:40:56;;;;;;;44.72;27.25;;;;;;;19.67;100.00;100791.56;5053467;28;20242;-74
2021/09/11 06:43:24;;;;;;;45.33;26.52;;;;;;;19.61;100.00;100794.81;5039586;28;20179;-74
2021/09/11 06:45:50;;;;;;;43.72;27.10;;;;;;;19.66;100.00;100788.00;5063301;28;20222;-74
2021/09/11 06:48:20;;;;;;;42.40;26.40;;;;;;;19.73;100.00;100796.56;5045257;28;20180;-75
2021/09/11 06:50:46;;;;;;;41.17;26.33;;;;;;;19.66;100.00;100793.50;5017958;28;20229;-73
2021/09/11 06:53:11;;;;;;;44.45;28.10;;;;;;;19.93;100.00;100792.34;5054389;28;20565;-73
2021/09/11 06:55:39;;;;;;;45.40;27.45;;;;;;;19.81;100.00;100792.16;5064095;28;20272;-73
2021/09/11 06:58:10;;;;;;;44.67;27.58;;;;;;;19.89;100.00;100791.34;5049297;28;20213;-74
2021/09/11 07:00:40;;;;;;;41.85;27.67;;;;;;;19.81;100.00;100797.69;5052540;28;20752;-73
2021/09/11 07:03:08;;;;;;;44.63;28.35;;;;;;;19.70;100.00;100794.47;5070935;28;20187;-74
2021/09/11 07:05:33;;;;;;;43.67;28.05;;;;;;;19.74;100.00;100802.88;5067652;28;20223;-74
2021/09/11 07:07:59;;;;;;;44.70;27.98;;;;;;;19.80;100.00;100801.59;5057410;28;20179;-74
2021/09/11 07:10:24;;;;;;;39.90;26.52;;;;;;;19.86;100.00;100795.59;5071066;28;20699;-74
2021/09/11 07:12:53;;;;;;;43.25;28.25;;;;;;;19.82;100.00;100794.63;5071823;28;20629;-73
2021/09/11 07:15:18;;;;;;;43.10;28.30;;;;;;;19.76;100.00;100806.13;5054790;28;20210;-74
2021/09/11 07:17:44;;;;;;;41.75;27.88;;;;;;;19.79;100.00;100799.97;5055085;28;20532;-73
2021/09/11 07:20:12;;;;;;;42.83;28.58;;;;;;;19.87;100.00;100802.75;5072634;28;20195;-73
2021/09/11 07:22:38;;;;;;;41.42;28.42;;;;;;;19.95;100.00;100804.66;5022193;28;20373;-74
2021/09/11 07:25:04;;;;;;;39.80;26.75;;;;;;;19.86;100.00;100805.81;5068993;28;20203;-74
2021/09/11 07:27:30;;;;;;;39.63;27.77;;;;;;;20.13;100.00;100806.22;5052304;28;20223;-74
2021/09/11 07:30:00;;;;;;;39.95;27.58;;;;;;;19.98;100.00;100808.69;5044172;28;20180;-73
2021/09/11 07:32:26;;;;;;;37.83;27.73;;;;;;;19.89;100.00;100818.94;5033225;28;20223;-74
2021/09/11 07:34:52;;;;;;;37.42;27.95;;;;;;;19.94;100.00;100814.03;5055065;28;20183;-73
2021/09/11 07:37:20;;;;;;;35.08;27.20;;;;;;;20.14;100.00;100822.41;5043031;28;20232;-74
2021/09/11 07:39:48;;;;;;;35.63;28.50;;;;;;;19.89;100.00;100818.94;5061279;28;20208;-73
2021/09/11 07:42:16;;;;;;;36.25;28.23;;;;;;;19.88;100.00;100820.09;5048956;28;20703;-73
2021/09/11 07:44:47;;;;;;;37.67;27.70;;;;;;;19.93;100.00;100823.47;5050723;28;20298;-73
2021/09/11 07:47:17;;;;;;;33.70;27.58;;;;;;;19.95;100.00;100829.47;5049813;28;20218;-73
2021/09/11 07:49:49;;;;;;;34.60;27.88;;;;;;;19.91;100.00;100830.47;5067508;28;20660;-74
2021/09/11 07:52:15;;;;;;;35.05;27.75;;;;;;;19.90;100.00;100829.63;5067669;28;20227;-73
2021/09/11 07:54:41;;;;;;;36.70;28.75;;;;;;;19.82;100.00;100829.69;5070940;28;20191;-74
2021/09/11 07:57:11;;;;;;;34.45;28.70;;;;;;;19.78;100.00;100832.25;5036547;28;20294;-73
2021/09/11 07:59:39;;;;;;;34.20;29.08;;;;;;;19.88;100.00;100837.44;5039267;28;20216;-74
2021/09/11 08:02:07;;;;;;;34.70;29.77;;;;;;;19.82;100.00;100837.94;5051282;28;20306;-73
2021/09/11 08:04:35;;;;;;;35.20;29.05;;;;;;;19.78;100.00;100846.03;5069434;28;20179;-74
2021/09/11 08:07:01;;;;;;;34.50;28.25;;;;;;;19.75;100.00;100843.13;5046119;28;20222;-74
2021/09/11 08:09:29;;;;;;;35.85;29.73;;;;;;;19.79;100.00;100844.88;5032570;28;20187;-75
2021/09/11 08:11:59;;;;;;;36.00;29.88;;;;;;;19.68;100.00;100843.59;5071222;28;20276;-75
2021/09/11 08:14:30;;;;;;;35.47;30.38;;;;;;;19.85;100.00;100846.38;5064613;28;20184;-74
2021/09/11 08:16:58;;;;;;;36.67;30.05;;;;;;;19.84;100.00;100850.25;5042982;28;20298;-74
2021/09/11 08:19:24;;;;;;;37.53;29.70;;;;;;;20.05;100.00;100853.13;5070530;28;20207;-75
2021/09/11 08:21:49;;;;;;;36.65;28.58;;;;;;;20.06;100.00;100850.03;5071193;28;20233;-75
2021/09/11 08:24:15;;;;;;;35.90;28.65;;;;;;;19.91;100.00;100858.03;5070776;28;20244;-75
2021/09/11 08:26:41;;;;;;;32.05;27.63;;;;;;;20.18;100.00;100852.91;5036298;28;20226;-75
2021/09/11 08:29:06;;;;;;;29.70;26.25;;;;;;;20.16;100.00;100849.66;5045289;28;20183;-75
2021/09/11 08:31:35;;;;;;;31.58;26.10;;;;;;;20.18;100.00;100852.91;5047626;28;21194;-74
2021/09/11 08:34:02;;;;;;;27.88;24.83;;;;;;;20.13;100.00;100858.63;5053520;28;20207;-76
2021/09/11 08:36:30;;;;;;;27.05;24.08;;;;;;;20.05;100.00;100862.19;5069953;28;20226;-72
2021/09/11 08:38:58;;;;;;;27.77;23.70;;;;;;;20.23;100.00;100863.78;5038379;28;20222;-73
2021/09/11 08:41:27;;;;;;;23.83;21.42;;;;;;;20.16;100.00;100866.22;5053401;28;20218;-73
2021/09/11 08:43:53;;;;;;;24.00;21.48;;;;;;;20.27;100.00;100868.28;5058029;28;20266;-74
2021/09/11 08:46:18;;;;;;;22.45;20.15;;;;;;;20.36;100.00;100873.78;5039439;28;20218;-74
2021/09/11 08:48:44;;;;;;;21.65;19.45;;;;;;;20.24;100.00;100879.19;5062587;28;20191;-73
2021/09/11 08:51:12;;;;;;;21.80;19.67;;;;;;;20.60;100.00;100870.09;5048790;28;20232;-76
2021/09/11 08:53:38;;;;;;;21.77;19.58;;;;;;;20.76;100.00;100875.88;5045047;28;20901;-73
2021/09/11 08:56:06;;;;;;;20.67;18.27;;;;;;;21.01;100.00;100875.75;5068768;28;20215;-73
2021/09/11 08:58:37;;;;;;;21.75;19.52;;;;;;;21.06;100.00;100878.28;5053739;28;20703;-73
2021/09/11 09:01:03;;;;;;;20.27;18.27;;;;;;;21.28;100.00;100874.06;5070570;28;20262;-76
2021/09/11 09:03:42;;;;;;;20.15;18.15;;;;;;;21.21;100.00;100872.16;5070172;28;20190;-75
2021/09/11 09:06:23;;;;;;;19.67;17.65;;;;;;;21.33;100.00;100876.59;5073157;28;20296;-76
2021/09/11 09:09:04;;;;;;;19.80;17.80;;;;;;;21.16;100.00;100886.19;5055969;28;20211;-74
2021/09/11 09:11:33;;;;;;;19.75;17.75;;;;;;;20.93;100.00;100882.09;5051103;28;20238;-74
2021/09/11 09:14:00;;;;;;;19.02;17.13;;;;;;;21.01;100.00;100878.50;5050242;28;20224;-73
2021/09/11 09:16:37;;;;;;;20.45;18.35;;;;;;;21.27;100.00;100877.97;5032527;28;20215;-74
2021/09/11 09:19:04;;;;;;;18.15;16.38;;;;;;;21.64;100.00;100874.25;5036395;28;20240;-74
2021/09/11 09:21:34;;;;;;;19.83;18.02;;;;;;;21.64;100.00;100883.34;5053011;28;20601;-73
2021/09/11 09:24:04;;;;;;;18.27;16.48;;;;;;;21.26;100.00;100886.59;5053287;28;20289;-75
2021/09/11 09:26:31;;;;;;;18.23;16.48;;;;;;;21.18;100.00;100883.91;5053133;28;20598;-75
2021/09/11 09:29:14;;;;;;;18.15;16.40;;;;;;;21.40;100.00;100885.19;5052781;28;20194;-74
2021/09/11 09:31:42;;;;;;;18.50;16.65;;;;;;;21.72;100.00;100884.41;5054309;28;20283;-74
2021/09/11 09:34:08;;;;;;;17.48;15.73;;;;;;;21.83;100.00;100882.84;5053245;28;20191;-75
2021/09/11 09:36:40;;;;;;;18.13;16.42;;;;;;;21.90;100.00;100885.88;5036162;28;20738;-73
2021/09/11 09:39:13;;;;;;;18.67;16.77;;;;;;;21.79;100.00;100888.25;5052870;28;20206;-75
2021/09/11 09:41:42;;;;;;;18.17;16.48;;;;;;;21.41;100.00;100884.06;5053113;28;20661;-74
2021/09/11 09:44:13;;;;;;;17.98;16.30;;;;;;;21.19;100.00;100888.25;5053014;28;20599;-74
2021/09/11 09:46:40;;;;;;;18.65;16.75;;;;;;;21.49;100.00;100885.94;5052901;28;20246;-74
2021/09/11 09:49:06;;;;;;;17.88;16.08;;;;;;;21.65;100.00;100879.44;5052458;28;20167;-73
2021/09/11 09:51:32;;;;;;;18.98;17.08;;;;;;;21.78;100.00;100883.09;5067238;28;20237;-74
2021/09/11 09:54:00;;;;;;;18.88;17.17;;;;;;;21.79;100.00;100884.69;5043586;28;20183;-74
2021/09/11 09:56:32;;;;;;;17.75;16.05;;;;;;;21.85;100.00;100884.16;5052981;28;20223;-75
2021/09/11 09:59:00;;;;;;;19.15;17.35;;;;;;;21.80;100.00;100887.13;5052842;28;20203;-73
2021/09/11 10:01:27;;;;;;;19.75;17.83;;;;;;;21.76;100.00;100885.38;5068954;28;20602;-75
2021/09/11 10:03:52;;;;;;;18.35;16.52;;;;;;;21.82;100.00;100878.47;5069154;28;21023;-74
2021/09/11 10:06:25;;;;;;;18.45;16.75;;;;;;;22.00;100.00;100885.47;5069660;28;20329;-73
2021/09/11 10:09:05;;;;;;;19.20;17.40;;;;;;;22.25;100.00;100883.25;5057637;28;20174;-75
2021/09/11 10:11:40;;;;;;;17.80;16.20;;;;;;;22.53;100.00;100884.19;5072791;28;20226;-75
2021/09/11 10:14:14;;;;;;;18.80;16.90;;;;;;;22.61;100.00;100880.50;5040299;28;20266;-76
2021/09/11 10:16:41;;;;;;;18.38;16.58;;;;;;;22.60;100.00;100884.41;5056282;28;20264;-74
2021/09/11 10:19:14;;;;;;;17.13;15.52;;;;;;;22.66;100.00;100877.50;5039500;28;20334;-75
2021/09/11 10:21:39;;;;;;;16.17;14.68;;;;;;;22.87;100.00;100879.81;5055518;28;20231;-75
2021/09/11 10:24:15;;;;;;;15.05;13.65;;;;;;;22.63;100.00;100878.19;5035787;28;20194;-73
2021/09/11 10:26:58;;;;;;;14.27;12.93;;;;;;;22.25;100.00;100877.72;5072245;28;20527;-73
2021/09/11 10:29:36;;;;;;;13.95;12.65;;;;;;;22.16;100.00;100873.41;5067261;28;20175;-75
2021/09/11 10:32:05;;;;;;;13.45;12.23;;;;;;;22.52;100.00;100868.72;5063980;28;20219;-76
2021/09/11 10:34:52;;;;;;;12.77;11.52;;;;;;;22.48;100.00;100876.09;5057273;28;20202;-74
2021/09/11 10:37:40;;;;;;;10.27;9.38;;;;;;;22.66;100.00;100869.19;5039905;28;20214;-73
2021/09/11 10:40:26;;;;;;;8.85;8.05;;;;;;;22.59;100.00;100872.53;5073429;28;20234;-75
2021/09/11 10:43:09;;;;;;;7.90;7.10;;;;;;;22.46;100.00;100870.09;5072496;28;20194;-75
2021/09/11 10:45:47;;;;;;;7.18;6.30;;;;;;;22.24;100.00;100873.31;5066941;28;20650;-74
2021/09/11 10:48:44;;;;;;;6.93;6.22;;;;;;;22.34;100.00;100875.63;5067316;28;20208;-73
2021/09/11 10:51:09;;;;;;;6.28;5.78;;;;;;;22.17;100.00;100870.28;5062689;28;20254;-74
2021/09/11 10:53:35;;;;;;;6.07;5.57;;;;;;;21.95;100.00;100877.38;5069985;28;20195;-74
2021/09/11 10:56:26;;;;;;;6.10;5.50;;;;;;;21.99;100.00;100878.28;5059767;28;20209;-75
2021/09/11 10:59:16;;;;;;;5.50;5.00;;;;;;;21.85;100.00;100869.47;5072383;28;20214;-74
2021/09/11 11:02:02;;;;;;;5.25;4.75;;;;;;;22.01;100.00;100872.09;5059378;28;20222;-75
2021/09/11 11:04:51;;;;;;;4.75;4.35;;;;;;;21.80;100.00;100875.25;5072421;28;20187;-73
2021/09/11 11:07:23;;;;;;;4.32;3.97;;;;;;;21.62;100.00;100867.47;5055422;28;20257;-76